Terminal Aerodrome Forecast
Issued by NWS

Current Version | Previous Version | Text Only | Print | Product List | Glossary Off
Versions: 1 2 3 4 5 6 7 8 9 10 11 12 13 14 15 16 17 18 19 20 21 22 23 24 25

000
FTUS41 KRLX 282000 AAA
TAFCKB
TAF AMD
KCKB 282051Z 2821/2918 21004KT P6SM SKC
     FM290800 00000KT 5SM BR SCT200
     FM291100 00000KT P6SM SCT200=

USA.gov is the U.S. government's official web portal to all federal, state and local government web resources and services.